Westby, North Dakota
Current Conditions -  °F | °C
As of 10:52 PM on Friday 24 Oct 2014 (Local Time) from KISN Reporting Station
Clear Clear  
Wind Chill:   Ceiling: Unl
Heat Index:   Visibility: 10mi
Dew Point: -3°   Wind: 12mph
Humidity: 48%   Direction: 290°WNW
Pressure: 30.05"   Gusts: NA
Location:  48.5901°N, 103.922°W
Report Text: KISN 250352Z AUTO 29010KT 10SM CLR 07/M03 A3005 RMK AO2 SLP184 T00721033
Loading
Personal Weather Stations






























Interactive Weather Map
Tropical Storm Tracking
New forecast layout! Learn more

10-Day Weather Forecast

Advertisements
Track Severe Weather on mobile